首页
METAR-TAF:

METAR-TAF

机场 :

巴亞馬雷, 罗马尼亚

纬度: 47-40N, 经度: 023-35E, 海拔: 218米

当前天气观测

该预报发布于25分钟前的02:30 UTC
风速5节,风向西转西北
温度
气压 1030 hPa
能見度: 4000
多云层高于500英尺
阴天层高于700英尺

METAR: LRBM 230230Z AUTO 29005KT 4000 BKN005 OVC007 ///// Q1030 REUP

时间: 04:55 (02:55 UTC)

预报

该预报发布于55分钟前的02:00 UTC
预报有效从23日的 03点(UTC)到 23日的 12点(UTC)
风速5节,风向西转西北
能見度: 3000
散云层高于500英尺
阴天层高于1000英尺
轻雾
短暂存在
从 23日的 03点(UTC)到 23日的 05点(UTC)
能見度: 1500
阴天层高于500英尺
(小) 冻, 毛毛雨, 轻雾
成为
从 23日的 06点(UTC)到 23日的 08点(UTC)
能見度: 7000
散云层高于1000英尺
多云层高于3000英尺

TAF: LRBM 230200Z 2303/2312 30005KT 3000 BR SCT005 OVC010 TEMPO 2303/2305 1500 -FZDZ BR OVC005 BECMG 2306/2308 7000 NSW SCT010 BKN030

超过4000个机场的气象观测和天气预报(METAR&TAF报告)。

可查询的气象台以黄色和红色小点在地图上表示。

将鼠标移到小点上方,可查看气象台名称。

然后点击查看天气观测和预报。

如需切换地图:点击带黑十字的绿色按钮放大地图;点击带横线的绿色按钮缩小地图;或者点击绿色箭头查看邻近地区的地图。


METAR-TAF: